Terminal Aerodrome Forecast
Issued by NWS Kansas City/Pleasant Hill, MO

Home | Current Version | Previous Version | Graphics & Text | Print | Product List | Glossary On
Versions: 1 2 3 4 5 6 7 8 9 10 11 12
872
FTUS43 KEAX 280520
TAFMCI
TAF
KMCI 280520Z 2806/2906 VRB03KT P6SM SCT200
      TEMPO 2809/2813 00000KT 4SM BR
     FM281400 34008KT P6SM SCT050=

USA.gov is the U.S. government's official web portal to all federal, state and local government web resources and services.